This is the latest recevied weather packets stored in our database for station/object DJ3OW-13. If no packets are shown the sender has not sent any weather packets the latest 10 day(s).
| Time | Temp. | Humidity | Pressure | Rain* | Wind** | Luminosity | Snow |
|---|---|---|---|---|---|---|---|
| 1777273228 | 6.11° C | 81% | 1026.5 hPa | 0 mm | - | - | - |
| 1777266064 | 0° C | 96% | 1025.7 hPa | 0 mm | - | - | - |
| 1777261248 | 0° C | 96% | 1025.4 hPa | 0 mm | - | - | - |
| 1777260044 | 0.56° C | 95% | 1025.5 hPa | 0 mm | - | - | - |
| 1777258840 | 0.56° C | 95% | 1025.4 hPa | 0 mm | - | - | - |
| 1777257636 | 1.11° C | 95% | 1025.5 hPa | 0 mm | - | - | - |
| 1777257034 | 1.11° C | 95% | 1025.6 hPa | 0 mm | - | - | - |
| 1777255830 | 1.11° C | 94% | 1025.4 hPa | 0 mm | - | - | - |
| 1777255228 | 1.11° C | 94% | 1025.4 hPa | 0 mm | - | - | - |
| 1777249870 | 2.22° C | 91% | 1026 hPa | 0 mm | - | - | - |
| 1777249268 | 2.22° C | 90% | 1026 hPa | 0 mm | - | - | - |
| 1777248666 | 2.78° C | 90% | 1026.1 hPa | 0 mm | - | - | - |
| 1777240238 | 5° C | 82% | 1026 hPa | 0 mm | - | - | - |
| 1777238432 | 5.56° C | 78% | 1026 hPa | 0 mm | - | - | - |
| 1777237830 | 6.11° C | 77% | 1026 hPa | 0 mm | - | - | - |
| 1777236626 | 6.11° C | 75% | 1026 hPa | 0 mm | - | - | - |
| 1777236024 | 6.67° C | 73% | 1026.1 hPa | 0 mm | - | - | - |
| 1777234218 | 7.22° C | 71% | 1026.2 hPa | 0 mm | - | - | - |
| 1777230666 | 9.44° C | 64% | 1026.3 hPa | 0 mm | - | - | - |
| 1777229461 | 10° C | 62% | 1026.1 hPa | 0 mm | - | - | - |
| 1777227655 | 12.22° C | 51% | 1026.1 hPa | 0 mm | - | - | - |
| 1777224645 | 14.44° C | 42% | 1026.1 hPa | 0 mm | - | - | - |
| 1777218023 | 15° C | 44% | 1026.6 hPa | 0 mm | - | - | - |
| 1777210859 | 16.11° C | 41% | 1027.2 hPa | 0 mm | - | - | - |
| 1777201226 | 12.78° C | 49% | 1027.8 hPa | 0 mm | - | - | - |
* Rain latest hour (hover to see other rain measurements)
** Current wind speed in m/s (hover to see current wind gust speed)